Terminal Aerodrome Forecast
Issued by NWS Burlington, VT

Home | Current Version | Previous Version | Text Only | Print | Product List | Glossary On
Versions: 1 2 3 4 5 6 7 8 9 10 11 12 13 14 15 16 17 18
000
FTUS41 KBTV 271940 AAA
TAFBTV
TAF AMD
KBTV 271940Z 2720/2818 35016G25KT 1 1/2SM -SN BR OVC016
      TEMPO 2720/2722 1/2SM SN FG OVC007
     FM272200 34011G24KT 3SM -SN BR OVC025
     FM280300 34011KT P6SM VCSH OVC025
     FM281300 35007KT P6SM BKN045=

USA.gov is the U.S. government's official web portal to all federal, state and local government web resources and services.